sensor_id;sensor_type;location;lat;lon;timestamp;pressure;altitude;pressure_sealevel;temperature
15079;BMP180;6932;51.438;5.470;2022-10-16T00:01:11;100657.00;;;18.70
15079;BMP180;6932;51.438;5.470;2022-10-16T00:03:38;100649.00;;;18.70
15079;BMP180;6932;51.438;5.470;2022-10-16T00:06:05;100655.00;;;18.70
15079;BMP180;6932;51.438;5.470;2022-10-16T00:08:31;100659.00;;;18.70
15079;BMP180;6932;51.438;5.470;2022-10-16T00:11:06;100655.00;;;18.70
15079;BMP180;6932;51.438;5.470;2022-10-16T00:13:35;100650.00;;;18.70
15079;BMP180;6932;51.438;5.470;2022-10-16T00:16:01;100649.00;;;18.70
15079;BMP180;6932;51.438;5.470;2022-10-16T00:18:28;100656.00;;;18.70
15079;BMP180;6932;51.438;5.470;2022-10-16T00:21:00;100650.00;;;18.70
15079;BMP180;6932;51.438;5.470;2022-10-16T00:23:26;100652.00;;;18.70
15079;BMP180;6932;51.438;5.470;2022-10-16T00:26:01;100653.00;;;18.70
15079;BMP180;6932;51.438;5.470;2022-10-16T00:28:28;100651.00;;;18.70
15079;BMP180;6932;51.438;5.470;2022-10-16T00:30:54;100645.00;;;18.70
15079;BMP180;6932;51.438;5.470;2022-10-16T00:33:20;100652.00;;;18.70
15079;BMP180;6932;51.438;5.470;2022-10-16T00:35:47;100649.00;;;18.70
15079;BMP180;6932;51.438;5.470;2022-10-16T00:38:13;100649.00;;;18.60
15079;BMP180;6932;51.438;5.470;2022-10-16T00:40:39;100656.00;;;18.60
15079;BMP180;6932;51.438;5.470;2022-10-16T00:43:41;100662.00;;;18.70
15079;BMP180;6932;51.438;5.470;2022-10-16T00:46:40;100658.00;;;18.60
15079;BMP180;6932;51.438;5.470;2022-10-16T00:49:13;100662.00;;;18.60
15079;BMP180;6932;51.438;5.470;2022-10-16T00:51:59;100657.00;;;18.60
15079;BMP180;6932;51.438;5.470;2022-10-16T00:54:29;100667.00;;;18.60
15079;BMP180;6932;51.438;5.470;2022-10-16T00:57:00;100660.00;;;18.60
15079;BMP180;6932;51.438;5.470;2022-10-16T00:59:37;100652.00;;;18.60
15079;BMP180;6932;51.438;5.470;2022-10-16T01:02:07;100655.00;;;18.60
15079;BMP180;6932;51.438;5.470;2022-10-16T01:04:40;100657.00;;;18.60
15079;BMP180;6932;51.438;5.470;2022-10-16T01:07:36;100655.00;;;18.60
15079;BMP180;6932;51.438;5.470;2022-10-16T01:12:45;100644.00;;;18.60
15079;BMP180;6932;51.438;5.470;2022-10-16T01:15:34;100648.00;;;18.60
15079;BMP180;6932;51.438;5.470;2022-10-16T01:18:15;100653.00;;;18.50
15079;BMP180;6932;51.438;5.470;2022-10-16T01:21:06;100659.00;;;18.50
15079;BMP180;6932;51.438;5.470;2022-10-16T01:27:15;100655.00;;;18.50
15079;BMP180;6932;51.438;5.470;2022-10-16T01:30:10;100650.00;;;18.50
15079;BMP180;6932;51.438;5.470;2022-10-16T01:32:45;100656.00;;;18.40
15079;BMP180;6932;51.438;5.470;2022-10-16T01:35:26;100655.00;;;18.50
15079;BMP180;6932;51.438;5.470;2022-10-16T01:38:02;100655.00;;;18.50
15079;BMP180;6932;51.438;5.470;2022-10-16T01:40:32;100656.00;;;18.40
15079;BMP180;6932;51.438;5.470;2022-10-16T01:43:12;100666.00;;;18.50
15079;BMP180;6932;51.438;5.470;2022-10-16T01:45:44;100662.00;;;18.40
15079;BMP180;6932;51.438;5.470;2022-10-16T01:48:14;100657.00;;;18.40
15079;BMP180;6932;51.438;5.470;2022-10-16T01:51:01;100648.00;;;18.40
15079;BMP180;6932;51.438;5.470;2022-10-16T01:53:29;100654.00;;;18.40
15079;BMP180;6932;51.438;5.470;2022-10-16T01:55:58;100657.00;;;18.40
15079;BMP180;6932;51.438;5.470;2022-10-16T01:58:25;100661.00;;;18.40
15079;BMP180;6932;51.438;5.470;2022-10-16T02:00:54;100661.00;;;18.40
15079;BMP180;6932;51.438;5.470;2022-10-16T02:03:21;100665.00;;;18.40
15079;BMP180;6932;51.438;5.470;2022-10-16T02:05:58;100659.00;;;18.50
15079;BMP180;6932;51.438;5.470;2022-10-16T02:08:27;100662.00;;;18.40
15079;BMP180;6932;51.438;5.470;2022-10-16T02:10:56;100655.00;;;18.50
15079;BMP180;6932;51.438;5.470;2022-10-16T02:13:29;100655.00;;;18.50
15079;BMP180;6932;51.438;5.470;2022-10-16T02:15:56;100655.00;;;18.50
15079;BMP180;6932;51.438;5.470;2022-10-16T02:18:22;100661.00;;;18.50
15079;BMP180;6932;51.438;5.470;2022-10-16T02:20:56;100652.00;;;18.50
15079;BMP180;6932;51.438;5.470;2022-10-16T02:23:50;100645.00;;;18.50
15079;BMP180;6932;51.438;5.470;2022-10-16T02:26:28;100648.00;;;18.40
15079;BMP180;6932;51.438;5.470;2022-10-16T02:29:02;100658.00;;;18.40
15079;BMP180;6932;51.438;5.470;2022-10-16T02:31:35;100656.00;;;18.40
15079;BMP180;6932;51.438;5.470;2022-10-16T02:34:05;100655.00;;;18.40
15079;BMP180;6932;51.438;5.470;2022-10-16T02:36:33;100659.00;;;18.40
15079;BMP180;6932;51.438;5.470;2022-10-16T02:39:02;100662.00;;;18.40
15079;BMP180;6932;51.438;5.470;2022-10-16T02:41:30;100670.00;;;18.40
15079;BMP180;6932;51.438;5.470;2022-10-16T02:43:56;100673.00;;;18.40
15079;BMP180;6932;51.438;5.470;2022-10-16T02:46:22;100657.00;;;18.40
15079;BMP180;6932;51.438;5.470;2022-10-16T02:48:48;100661.00;;;18.40
15079;BMP180;6932;51.438;5.470;2022-10-16T02:51:13;100660.00;;;18.40
15079;BMP180;6932;51.438;5.470;2022-10-16T02:53:39;100658.00;;;18.40
15079;BMP180;6932;51.438;5.470;2022-10-16T02:56:05;100655.00;;;18.40
15079;BMP180;6932;51.438;5.470;2022-10-16T02:58:31;100655.00;;;18.40
15079;BMP180;6932;51.438;5.470;2022-10-16T03:00:56;100663.00;;;18.40
15079;BMP180;6932;51.438;5.470;2022-10-16T03:03:22;100666.00;;;18.40
15079;BMP180;6932;51.438;5.470;2022-10-16T03:05:48;100669.00;;;18.40
15079;BMP180;6932;51.438;5.470;2022-10-16T03:08:13;100679.00;;;18.40
15079;BMP180;6932;51.438;5.470;2022-10-16T03:10:39;100677.00;;;18.40
15079;BMP180;6932;51.438;5.470;2022-10-16T03:13:05;100676.00;;;18.40
15079;BMP180;6932;51.438;5.470;2022-10-16T03:15:31;100667.00;;;18.30
15079;BMP180;6932;51.438;5.470;2022-10-16T03:18:00;100682.00;;;18.30
15079;BMP180;6932;51.438;5.470;2022-10-16T03:20:26;100687.00;;;18.30
15079;BMP180;6932;51.438;5.470;2022-10-16T03:22:52;100683.00;;;18.30
15079;BMP180;6932;51.438;5.470;2022-10-16T03:25:18;100683.00;;;18.30
15079;BMP180;6932;51.438;5.470;2022-10-16T03:27:43;100686.00;;;18.30
15079;BMP180;6932;51.438;5.470;2022-10-16T03:30:10;100688.00;;;18.30
15079;BMP180;6932;51.438;5.470;2022-10-16T03:32:35;100693.00;;;18.30
15079;BMP180;6932;51.438;5.470;2022-10-16T03:35:01;100690.00;;;18.30
15079;BMP180;6932;51.438;5.470;2022-10-16T03:37:27;100684.00;;;18.30
15079;BMP180;6932;51.438;5.470;2022-10-16T03:39:53;100675.00;;;18.30
15079;BMP180;6932;51.438;5.470;2022-10-16T03:42:19;100681.00;;;18.30
15079;BMP180;6932;51.438;5.470;2022-10-16T03:44:45;100695.00;;;18.30
15079;BMP180;6932;51.438;5.470;2022-10-16T03:47:10;100700.00;;;18.30
15079;BMP180;6932;51.438;5.470;2022-10-16T03:49:36;100703.00;;;18.30
15079;BMP180;6932;51.438;5.470;2022-10-16T03:52:02;100701.00;;;18.30
15079;BMP180;6932;51.438;5.470;2022-10-16T03:54:28;100707.00;;;18.30
15079;BMP180;6932;51.438;5.470;2022-10-16T03:56:53;100719.00;;;18.30
15079;BMP180;6932;51.438;5.470;2022-10-16T03:59:19;100707.00;;;18.30
15079;BMP180;6932;51.438;5.470;2022-10-16T04:01:45;100706.00;;;18.40
15079;BMP180;6932;51.438;5.470;2022-10-16T04:04:10;100712.00;;;18.40
15079;BMP180;6932;51.438;5.470;2022-10-16T04:06:36;100710.00;;;18.40
15079;BMP180;6932;51.438;5.470;2022-10-16T04:09:02;100700.00;;;18.40
15079;BMP180;6932;51.438;5.470;2022-10-16T04:11:28;100717.00;;;18.40
15079;BMP180;6932;51.438;5.470;2022-10-16T04:13:53;100712.00;;;18.40
15079;BMP180;6932;51.438;5.470;2022-10-16T04:16:19;100720.00;;;18.40
15079;BMP180;6932;51.438;5.470;2022-10-16T04:18:45;100710.00;;;18.40
15079;BMP180;6932;51.438;5.470;2022-10-16T04:21:11;100726.00;;;18.40
15079;BMP180;6932;51.438;5.470;2022-10-16T04:23:36;100719.00;;;18.40
15079;BMP180;6932;51.438;5.470;2022-10-16T04:26:02;100718.00;;;18.40
15079;BMP180;6932;51.438;5.470;2022-10-16T04:28:28;100721.00;;;18.40
15079;BMP180;6932;51.438;5.470;2022-10-16T04:30:54;100720.00;;;18.40
15079;BMP180;6932;51.438;5.470;2022-10-16T04:33:20;100706.00;;;18.40
15079;BMP180;6932;51.438;5.470;2022-10-16T04:35:45;100726.00;;;18.40
15079;BMP180;6932;51.438;5.470;2022-10-16T04:38:11;100726.00;;;18.40
15079;BMP180;6932;51.438;5.470;2022-10-16T04:40:37;100720.00;;;18.40
15079;BMP180;6932;51.438;5.470;2022-10-16T04:43:04;100722.00;;;18.40
15079;BMP180;6932;51.438;5.470;2022-10-16T04:45:30;100727.00;;;18.40
15079;BMP180;6932;51.438;5.470;2022-10-16T04:47:59;100730.00;;;18.40
15079;BMP180;6932;51.438;5.470;2022-10-16T04:50:26;100730.00;;;18.40
15079;BMP180;6932;51.438;5.470;2022-10-16T04:52:51;100739.00;;;18.40
15079;BMP180;6932;51.438;5.470;2022-10-16T04:55:17;100736.00;;;18.40
15079;BMP180;6932;51.438;5.470;2022-10-16T04:57:43;100744.00;;;18.40
15079;BMP180;6932;51.438;5.470;2022-10-16T05:00:09;100738.00;;;18.40
15079;BMP180;6932;51.438;5.470;2022-10-16T05:02:35;100738.00;;;18.50
15079;BMP180;6932;51.438;5.470;2022-10-16T05:05:01;100746.00;;;18.50
15079;BMP180;6932;51.438;5.470;2022-10-16T05:07:26;100747.00;;;18.50
15079;BMP180;6932;51.438;5.470;2022-10-16T05:09:52;100756.00;;;18.40
15079;BMP180;6932;51.438;5.470;2022-10-16T05:12:18;100758.00;;;18.40
15079;BMP180;6932;51.438;5.470;2022-10-16T05:14:44;100773.00;;;18.50
15079;BMP180;6932;51.438;5.470;2022-10-16T05:17:09;100776.00;;;18.40
15079;BMP180;6932;51.438;5.470;2022-10-16T05:19:35;100782.00;;;18.50
15079;BMP180;6932;51.438;5.470;2022-10-16T05:22:01;100778.00;;;18.40
15079;BMP180;6932;51.438;5.470;2022-10-16T05:24:27;100774.00;;;18.40
15079;BMP180;6932;51.438;5.470;2022-10-16T05:26:53;100790.00;;;18.40
15079;BMP180;6932;51.438;5.470;2022-10-16T05:29:19;100774.00;;;18.40
15079;BMP180;6932;51.438;5.470;2022-10-16T05:31:45;100779.00;;;18.40
15079;BMP180;6932;51.438;5.470;2022-10-16T05:34:11;100778.00;;;18.40
15079;BMP180;6932;51.438;5.470;2022-10-16T05:36:36;100783.00;;;18.40
15079;BMP180;6932;51.438;5.470;2022-10-16T05:39:03;100785.00;;;18.40
15079;BMP180;6932;51.438;5.470;2022-10-16T05:41:28;100798.00;;;18.40
15079;BMP180;6932;51.438;5.470;2022-10-16T05:43:54;100802.00;;;18.40
15079;BMP180;6932;51.438;5.470;2022-10-16T05:46:20;100811.00;;;18.40
15079;BMP180;6932;51.438;5.470;2022-10-16T05:48:46;100809.00;;;18.30
15079;BMP180;6932;51.438;5.470;2022-10-16T05:51:14;100815.00;;;18.30
15079;BMP180;6932;51.438;5.470;2022-10-16T05:53:40;100822.00;;;18.30
15079;BMP180;6932;51.438;5.470;2022-10-16T05:56:10;100827.00;;;18.30
15079;BMP180;6932;51.438;5.470;2022-10-16T05:58:37;100828.00;;;18.30
15079;BMP180;6932;51.438;5.470;2022-10-16T06:01:11;100828.00;;;18.30
15079;BMP180;6932;51.438;5.470;2022-10-16T06:03:37;100827.00;;;18.30
15079;BMP180;6932;51.438;5.470;2022-10-16T06:06:16;100836.00;;;18.30
15079;BMP180;6932;51.438;5.470;2022-10-16T06:08:43;100846.00;;;18.30
15079;BMP180;6932;51.438;5.470;2022-10-16T06:11:17;100834.00;;;18.30
15079;BMP180;6932;51.438;5.470;2022-10-16T06:13:43;100849.00;;;18.30
15079;BMP180;6932;51.438;5.470;2022-10-16T06:16:12;100844.00;;;18.30
15079;BMP180;6932;51.438;5.470;2022-10-16T06:18:38;100852.00;;;18.30
15079;BMP180;6932;51.438;5.470;2022-10-16T06:21:14;100865.00;;;18.30
15079;BMP180;6932;51.438;5.470;2022-10-16T06:23:41;100868.00;;;18.20
15079;BMP180;6932;51.438;5.470;2022-10-16T06:26:10;100862.00;;;18.20
15079;BMP180;6932;51.438;5.470;2022-10-16T06:28:37;100864.00;;;18.20
15079;BMP180;6932;51.438;5.470;2022-10-16T06:31:05;100856.00;;;18.20
15079;BMP180;6932;51.438;5.470;2022-10-16T06:33:31;100864.00;;;18.20
15079;BMP180;6932;51.438;5.470;2022-10-16T06:36:10;100877.00;;;18.30
15079;BMP180;6932;51.438;5.470;2022-10-16T06:38:37;100882.00;;;18.20
15079;BMP180;6932;51.438;5.470;2022-10-16T06:41:04;100889.00;;;18.20
15079;BMP180;6932;51.438;5.470;2022-10-16T06:43:31;100904.00;;;18.20
15079;BMP180;6932;51.438;5.470;2022-10-16T06:45:59;100904.00;;;18.20
15079;BMP180;6932;51.438;5.470;2022-10-16T06:48:26;100914.00;;;18.20
15079;BMP180;6932;51.438;5.470;2022-10-16T06:51:15;100921.00;;;18.30
15079;BMP180;6932;51.438;5.470;2022-10-16T06:53:47;100923.00;;;18.30
15079;BMP180;6932;51.438;5.470;2022-10-16T06:56:23;100922.00;;;18.40
15079;BMP180;6932;51.438;5.470;2022-10-16T06:58:50;100929.00;;;18.50
15079;BMP180;6932;51.438;5.470;2022-10-16T07:01:19;100933.00;;;18.70
15079;BMP180;6932;51.438;5.470;2022-10-16T07:03:46;100931.00;;;18.80
15079;BMP180;6932;51.438;5.470;2022-10-16T07:06:17;100934.00;;;18.90
15079;BMP180;6932;51.438;5.470;2022-10-16T07:08:46;100934.00;;;19.10
15079;BMP180;6932;51.438;5.470;2022-10-16T07:11:15;100948.00;;;19.20
15079;BMP180;6932;51.438;5.470;2022-10-16T07:13:44;100940.00;;;19.40
15079;BMP180;6932;51.438;5.470;2022-10-16T07:16:14;100961.00;;;19.50
15079;BMP180;6932;51.438;5.470;2022-10-16T07:18:41;100950.00;;;19.60
15079;BMP180;6932;51.438;5.470;2022-10-16T07:21:13;100952.00;;;19.80
15079;BMP180;6932;51.438;5.470;2022-10-16T07:23:40;100957.00;;;19.90
15079;BMP180;6932;51.438;5.470;2022-10-16T07:26:06;100960.00;;;20.10
15079;BMP180;6932;51.438;5.470;2022-10-16T07:28:33;100968.00;;;20.20
15079;BMP180;6932;51.438;5.470;2022-10-16T07:31:09;100969.00;;;20.40
15079;BMP180;6932;51.438;5.470;2022-10-16T07:33:37;100971.00;;;20.50
15079;BMP180;6932;51.438;5.470;2022-10-16T07:36:05;100974.00;;;20.70
15079;BMP180;6932;51.438;5.470;2022-10-16T07:38:30;100974.00;;;20.90
15079;BMP180;6932;51.438;5.470;2022-10-16T07:41:04;100978.00;;;21.00
15079;BMP180;6932;51.438;5.470;2022-10-16T07:43:30;100983.00;;;21.20
15079;BMP180;6932;51.438;5.470;2022-10-16T07:45:56;100998.00;;;21.30
15079;BMP180;6932;51.438;5.470;2022-10-16T07:48:23;100996.00;;;21.50
15079;BMP180;6932;51.438;5.470;2022-10-16T07:50:49;101003.00;;;21.60
15079;BMP180;6932;51.438;5.470;2022-10-16T07:53:15;100998.00;;;21.80
15079;BMP180;6932;51.438;5.470;2022-10-16T07:55:41;101005.00;;;21.90
15079;BMP180;6932;51.438;5.470;2022-10-16T07:58:07;101011.00;;;22.00
15079;BMP180;6932;51.438;5.470;2022-10-16T08:00:33;101018.00;;;22.10
15079;BMP180;6932;51.438;5.470;2022-10-16T08:03:00;101031.00;;;22.30
15079;BMP180;6932;51.438;5.470;2022-10-16T08:05:31;101028.00;;;22.40
15079;BMP180;6932;51.438;5.470;2022-10-16T08:07:57;101034.00;;;22.40
15079;BMP180;6932;51.438;5.470;2022-10-16T08:10:27;101034.00;;;22.50
15079;BMP180;6932;51.438;5.470;2022-10-16T08:12:53;101026.00;;;22.50
15079;BMP180;6932;51.438;5.470;2022-10-16T08:15:20;101049.00;;;22.50
15079;BMP180;6932;51.438;5.470;2022-10-16T08:18:01;101051.00;;;22.60
15079;BMP180;6932;51.438;5.470;2022-10-16T08:20:28;101053.00;;;22.70
15079;BMP180;6932;51.438;5.470;2022-10-16T08:22:54;101051.00;;;22.70
15079;BMP180;6932;51.438;5.470;2022-10-16T08:25:22;101058.00;;;22.80
15079;BMP180;6932;51.438;5.470;2022-10-16T08:27:49;101050.00;;;22.90
15079;BMP180;6932;51.438;5.470;2022-10-16T08:30:17;101059.00;;;23.00
15079;BMP180;6932;51.438;5.470;2022-10-16T08:32:43;101049.00;;;23.00
15079;BMP180;6932;51.438;5.470;2022-10-16T08:35:11;101053.00;;;23.10
15079;BMP180;6932;51.438;5.470;2022-10-16T08:37:38;101059.00;;;23.20
15079;BMP180;6932;51.438;5.470;2022-10-16T08:40:06;101061.00;;;23.20
15079;BMP180;6932;51.438;5.470;2022-10-16T08:48:48;101086.00;;;23.50
15079;BMP180;6932;51.438;5.470;2022-10-16T08:51:36;101078.00;;;23.50
15079;BMP180;6932;51.438;5.470;2022-10-16T08:54:25;101094.00;;;23.70
15079;BMP180;6932;51.438;5.470;2022-10-16T08:57:11;101095.00;;;23.70
15079;BMP180;6932;51.438;5.470;2022-10-16T08:59:37;101090.00;;;23.80
15079;BMP180;6932;51.438;5.470;2022-10-16T09:02:37;101100.00;;;23.90
15079;BMP180;6932;51.438;5.470;2022-10-16T09:08:26;101102.00;;;24.00
15079;BMP180;6932;51.438;5.470;2022-10-16T09:11:14;101103.00;;;24.00
15079;BMP180;6932;51.438;5.470;2022-10-16T09:16:47;101105.00;;;24.20
15079;BMP180;6932;51.438;5.470;2022-10-16T09:19:45;101127.00;;;24.30
15079;BMP180;6932;51.438;5.470;2022-10-16T09:22:16;101113.00;;;24.30
15079;BMP180;6932;51.438;5.470;2022-10-16T09:24:42;101126.00;;;24.40
15079;BMP180;6932;51.438;5.470;2022-10-16T09:27:12;101125.00;;;24.50
15079;BMP180;6932;51.438;5.470;2022-10-16T09:29:38;101133.00;;;24.60
15079;BMP180;6932;51.438;5.470;2022-10-16T09:32:17;101135.00;;;24.70
15079;BMP180;6932;51.438;5.470;2022-10-16T09:35:02;101137.00;;;24.70
15079;BMP180;6932;51.438;5.470;2022-10-16T09:37:28;101142.00;;;24.70
15079;BMP180;6932;51.438;5.470;2022-10-16T09:39:54;101134.00;;;24.70
15079;BMP180;6932;51.438;5.470;2022-10-16T09:42:33;101140.00;;;24.70
15079;BMP180;6932;51.438;5.470;2022-10-16T09:45:00;101136.00;;;24.70
15079;BMP180;6932;51.438;5.470;2022-10-16T09:47:29;101135.00;;;24.70
15079;BMP180;6932;51.438;5.470;2022-10-16T09:52:23;101131.00;;;24.90
15079;BMP180;6932;51.438;5.470;2022-10-16T09:55:02;101140.00;;;24.90
15079;BMP180;6932;51.438;5.470;2022-10-16T09:57:34;101059.00;;;24.90
15079;BMP180;6932;51.438;5.470;2022-10-16T10:00:08;101059.00;;;24.80
15079;BMP180;6932;51.438;5.470;2022-10-16T10:02:37;101053.00;;;24.60
15079;BMP180;6932;51.438;5.470;2022-10-16T10:05:27;101052.00;;;24.50
15079;BMP180;6932;51.438;5.470;2022-10-16T10:08:00;101061.00;;;24.50
15079;BMP180;6932;51.438;5.470;2022-10-16T10:10:31;101057.00;;;24.40
15079;BMP180;6932;51.438;5.470;2022-10-16T10:12:58;101074.00;;;24.40
15079;BMP180;6932;51.438;5.470;2022-10-16T10:15:32;101068.00;;;24.40
15079;BMP180;6932;51.438;5.470;2022-10-16T10:17:58;101061.00;;;24.30
15079;BMP180;6932;51.438;5.470;2022-10-16T10:20:35;101065.00;;;24.20
15079;BMP180;6932;51.438;5.470;2022-10-16T10:23:23;101067.00;;;24.10
15079;BMP180;6932;51.438;5.470;2022-10-16T10:26:24;101081.00;;;24.00
15079;BMP180;6932;51.438;5.470;2022-10-16T10:29:26;101080.00;;;24.10
15079;BMP180;6932;51.438;5.470;2022-10-16T10:35:06;101079.00;;;24.00
15079;BMP180;6932;51.438;5.470;2022-10-16T10:37:55;101087.00;;;24.10
15079;BMP180;6932;51.438;5.470;2022-10-16T10:40:51;101092.00;;;24.10
15079;BMP180;6932;51.438;5.470;2022-10-16T10:46:22;101094.00;;;24.10
15079;BMP180;6932;51.438;5.470;2022-10-16T10:51:49;101102.00;;;24.20
15079;BMP180;6932;51.438;5.470;2022-10-16T10:54:51;101112.00;;;24.20
15079;BMP180;6932;51.438;5.470;2022-10-16T10:57:29;101086.00;;;24.10
15079;BMP180;6932;51.438;5.470;2022-10-16T11:05:44;101092.00;;;24.40
15079;BMP180;6932;51.438;5.470;2022-10-16T11:11:06;101091.00;;;24.60
15079;BMP180;6932;51.438;5.470;2022-10-16T11:16:28;101085.00;;;24.70
15079;BMP180;6932;51.438;5.470;2022-10-16T11:19:53;101107.00;;;24.90
15079;BMP180;6932;51.438;5.470;2022-10-16T11:22:34;101104.00;;;24.90
15079;BMP180;6932;51.438;5.470;2022-10-16T11:25:36;101114.00;;;24.90
15079;BMP180;6932;51.438;5.470;2022-10-16T11:28:15;101121.00;;;24.80
15079;BMP180;6932;51.438;5.470;2022-10-16T11:30:50;101119.00;;;24.80
15079;BMP180;6932;51.438;5.470;2022-10-16T11:33:33;101107.00;;;24.80
15079;BMP180;6932;51.438;5.470;2022-10-16T11:36:25;101196.00;;;24.90
15079;BMP180;6932;51.438;5.470;2022-10-16T11:39:24;101192.00;;;25.00
15079;BMP180;6932;51.438;5.470;2022-10-16T11:42:04;101196.00;;;25.10
15079;BMP180;6932;51.438;5.470;2022-10-16T11:45:03;101186.00;;;25.20
15079;BMP180;6932;51.438;5.470;2022-10-16T11:50:56;101211.00;;;25.30
15079;BMP180;6932;51.438;5.470;2022-10-16T11:56:20;101205.00;;;25.40
15079;BMP180;6932;51.438;5.470;2022-10-16T12:02:30;101207.00;;;25.40
15079;BMP180;6932;51.438;5.470;2022-10-16T12:07:39;101212.00;;;25.40
15079;BMP180;6932;51.438;5.470;2022-10-16T12:10:29;101197.00;;;25.30
15079;BMP180;6932;51.438;5.470;2022-10-16T12:12:57;101205.00;;;25.30
15079;BMP180;6932;51.438;5.470;2022-10-16T12:15:27;101209.00;;;25.30
15079;BMP180;6932;51.438;5.470;2022-10-16T12:17:55;101214.00;;;25.30
15079;BMP180;6932;51.438;5.470;2022-10-16T12:20:27;101224.00;;;25.40
15079;BMP180;6932;51.438;5.470;2022-10-16T12:23:02;101226.00;;;25.30
15079;BMP180;6932;51.438;5.470;2022-10-16T12:25:33;101214.00;;;25.30
15079;BMP180;6932;51.438;5.470;2022-10-16T12:28:15;101218.00;;;25.20
15079;BMP180;6932;51.438;5.470;2022-10-16T12:30:52;101211.00;;;25.10
15079;BMP180;6932;51.438;5.470;2022-10-16T12:35:50;101226.00;;;24.90
15079;BMP180;6932;51.438;5.470;2022-10-16T12:38:25;101221.00;;;24.90
15079;BMP180;6932;51.438;5.470;2022-10-16T12:41:02;101219.00;;;24.80
15079;BMP180;6932;51.438;5.470;2022-10-16T12:48:38;101209.00;;;24.80
15079;BMP180;6932;51.438;5.470;2022-10-16T12:54:03;101214.00;;;24.70
15079;BMP180;6932;51.438;5.470;2022-10-16T13:05:49;101208.00;;;24.70
15079;BMP180;6932;51.438;5.470;2022-10-16T13:11:47;101202.00;;;24.60
15079;BMP180;6932;51.438;5.470;2022-10-16T13:15:01;101206.00;;;24.60
15079;BMP180;6932;51.438;5.470;2022-10-16T13:17:49;101217.00;;;24.60
15079;BMP180;6932;51.438;5.470;2022-10-16T13:20:55;101211.00;;;24.70
15079;BMP180;6932;51.438;5.470;2022-10-16T13:26:56;101221.00;;;24.70
15079;BMP180;6932;51.438;5.470;2022-10-16T13:29:33;101223.00;;;24.70
15079;BMP180;6932;51.438;5.470;2022-10-16T13:32:07;101226.00;;;24.70
15079;BMP180;6932;51.438;5.470;2022-10-16T13:34:43;101237.00;;;24.70
15079;BMP180;6932;51.438;5.470;2022-10-16T13:37:22;101228.00;;;24.60
15079;BMP180;6932;51.438;5.470;2022-10-16T13:39:48;101239.00;;;24.60
15079;BMP180;6932;51.438;5.470;2022-10-16T13:42:26;101251.00;;;24.60
15079;BMP180;6932;51.438;5.470;2022-10-16T13:44:54;101237.00;;;24.50
15079;BMP180;6932;51.438;5.470;2022-10-16T13:47:23;101236.00;;;24.50
15079;BMP180;6932;51.438;5.470;2022-10-16T13:50:09;101255.00;;;24.50
15079;BMP180;6932;51.438;5.470;2022-10-16T13:52:36;101241.00;;;24.40
15079;BMP180;6932;51.438;5.470;2022-10-16T13:55:10;101241.00;;;24.40
15079;BMP180;6932;51.438;5.470;2022-10-16T13:57:36;101247.00;;;24.30
15079;BMP180;6932;51.438;5.470;2022-10-16T14:00:03;101249.00;;;24.30
15079;BMP180;6932;51.438;5.470;2022-10-16T14:02:42;101246.00;;;24.20
15079;BMP180;6932;51.438;5.470;2022-10-16T14:05:09;101248.00;;;24.20
15079;BMP180;6932;51.438;5.470;2022-10-16T14:07:37;101252.00;;;24.20
15079;BMP180;6932;51.438;5.470;2022-10-16T14:10:07;101251.00;;;24.10
15079;BMP180;6932;51.438;5.470;2022-10-16T14:12:43;101251.00;;;24.10
15079;BMP180;6932;51.438;5.470;2022-10-16T14:15:18;101259.00;;;24.10
15079;BMP180;6932;51.438;5.470;2022-10-16T14:17:48;101259.00;;;24.00
15079;BMP180;6932;51.438;5.470;2022-10-16T14:20:16;101252.00;;;24.00
15079;BMP180;6932;51.438;5.470;2022-10-16T14:22:42;101246.00;;;24.00
15079;BMP180;6932;51.438;5.470;2022-10-16T14:25:28;101235.00;;;24.00
15079;BMP180;6932;51.438;5.470;2022-10-16T14:30:36;101235.00;;;23.80
15079;BMP180;6932;51.438;5.470;2022-10-16T14:33:24;101239.00;;;23.80
15079;BMP180;6932;51.438;5.470;2022-10-16T14:36:04;101234.00;;;23.70
15079;BMP180;6932;51.438;5.470;2022-10-16T14:38:32;101221.00;;;23.70
15079;BMP180;6932;51.438;5.470;2022-10-16T14:40:59;101231.00;;;23.70
15079;BMP180;6932;51.438;5.470;2022-10-16T14:43:41;101224.00;;;23.70
15079;BMP180;6932;51.438;5.470;2022-10-16T14:46:15;101233.00;;;23.60
15079;BMP180;6932;51.438;5.470;2022-10-16T14:48:48;101236.00;;;23.60
15079;BMP180;6932;51.438;5.470;2022-10-16T14:51:17;101234.00;;;23.60
15079;BMP180;6932;51.438;5.470;2022-10-16T14:53:44;101228.00;;;23.60
15079;BMP180;6932;51.438;5.470;2022-10-16T14:56:23;101245.00;;;23.60
15079;BMP180;6932;51.438;5.470;2022-10-16T14:58:53;101230.00;;;23.60
15079;BMP180;6932;51.438;5.470;2022-10-16T15:01:19;101226.00;;;23.60
15079;BMP180;6932;51.438;5.470;2022-10-16T15:03:45;101220.00;;;23.60
15079;BMP180;6932;51.438;5.470;2022-10-16T15:06:15;101215.00;;;23.60
15079;BMP180;6932;51.438;5.470;2022-10-16T15:08:42;101222.00;;;23.50
15079;BMP180;6932;51.438;5.470;2022-10-16T15:11:17;101223.00;;;23.50
15079;BMP180;6932;51.438;5.470;2022-10-16T15:13:43;101218.00;;;23.50
15079;BMP180;6932;51.438;5.470;2022-10-16T15:16:15;101224.00;;;23.50
15079;BMP180;6932;51.438;5.470;2022-10-16T15:18:42;101223.00;;;23.50
15079;BMP180;6932;51.438;5.470;2022-10-16T15:21:29;101223.00;;;23.40
15079;BMP180;6932;51.438;5.470;2022-10-16T15:23:56;101223.00;;;23.40
15079;BMP180;6932;51.438;5.470;2022-10-16T15:26:27;101218.00;;;23.40
15079;BMP180;6932;51.438;5.470;2022-10-16T15:28:53;101225.00;;;23.30
15079;BMP180;6932;51.438;5.470;2022-10-16T15:31:19;101232.00;;;23.30
15079;BMP180;6932;51.438;5.470;2022-10-16T15:33:50;101226.00;;;23.20
15079;BMP180;6932;51.438;5.470;2022-10-16T15:36:28;101224.00;;;23.20
15079;BMP180;6932;51.438;5.470;2022-10-16T15:38:55;101231.00;;;23.20
15079;BMP180;6932;51.438;5.470;2022-10-16T15:41:21;101218.00;;;23.20
15079;BMP180;6932;51.438;5.470;2022-10-16T15:43:51;101200.00;;;23.20
15079;BMP180;6932;51.438;5.470;2022-10-16T15:46:20;101194.00;;;23.10
15079;BMP180;6932;51.438;5.470;2022-10-16T15:48:48;101199.00;;;23.10
15079;BMP180;6932;51.438;5.470;2022-10-16T15:51:14;101213.00;;;23.10
15079;BMP180;6932;51.438;5.470;2022-10-16T15:53:40;101229.00;;;23.00
15079;BMP180;6932;51.438;5.470;2022-10-16T15:56:08;101236.00;;;23.00
15079;BMP180;6932;51.438;5.470;2022-10-16T15:58:34;101233.00;;;23.00